sensor_id;sensor_type;location;lat;lon;timestamp;P1;durP1;ratioP1;P2;durP2;ratioP2
25810;SDS011;13645;52.460;13.910;2022-12-10T00:01:34;33.42;;;16.05;;
25810;SDS011;13645;52.460;13.910;2022-12-10T00:04:02;34.92;;;16.88;;
25810;SDS011;13645;52.460;13.910;2022-12-10T00:06:31;29.88;;;15.32;;
25810;SDS011;13645;52.460;13.910;2022-12-10T00:09:00;34.17;;;15.63;;
25810;SDS011;13645;52.460;13.910;2022-12-10T00:11:28;36.90;;;16.23;;
25810;SDS011;13645;52.460;13.910;2022-12-10T00:13:55;33.75;;;16.33;;
25810;SDS011;13645;52.460;13.910;2022-12-10T00:16:23;36.13;;;16.73;;
25810;SDS011;13645;52.460;13.910;2022-12-10T00:18:51;33.08;;;15.13;;
25810;SDS011;13645;52.460;13.910;2022-12-10T00:21:21;35.40;;;17.40;;
25810;SDS011;13645;52.460;13.910;2022-12-10T00:23:55;32.03;;;16.65;;
25810;SDS011;13645;52.460;13.910;2022-12-10T00:26:24;33.55;;;17.13;;
25810;SDS011;13645;52.460;13.910;2022-12-10T00:29:00;32.05;;;16.92;;
25810;SDS011;13645;52.460;13.910;2022-12-10T00:31:29;37.03;;;18.65;;
25810;SDS011;13645;52.460;13.910;2022-12-10T00:34:00;34.08;;;17.17;;
25810;SDS011;13645;52.460;13.910;2022-12-10T00:36:30;33.45;;;16.75;;
25810;SDS011;13645;52.460;13.910;2022-12-10T00:39:03;37.22;;;18.15;;
25810;SDS011;13645;52.460;13.910;2022-12-10T00:41:30;35.25;;;16.90;;
25810;SDS011;13645;52.460;13.910;2022-12-10T00:43:57;35.97;;;17.98;;
25810;SDS011;13645;52.460;13.910;2022-12-10T00:46:24;35.80;;;17.65;;
25810;SDS011;13645;52.460;13.910;2022-12-10T00:48:51;35.90;;;18.40;;
25810;SDS011;13645;52.460;13.910;2022-12-10T00:51:21;35.65;;;18.27;;
25810;SDS011;13645;52.460;13.910;2022-12-10T00:53:50;38.40;;;17.98;;
25810;SDS011;13645;52.460;13.910;2022-12-10T00:56:19;31.90;;;16.92;;
25810;SDS011;13645;52.460;13.910;2022-12-10T00:58:48;38.22;;;18.20;;
25810;SDS011;13645;52.460;13.910;2022-12-10T01:01:20;36.15;;;17.63;;
25810;SDS011;13645;52.460;13.910;2022-12-10T01:03:48;37.25;;;18.48;;
25810;SDS011;13645;52.460;13.910;2022-12-10T01:06:21;40.58;;;18.88;;
25810;SDS011;13645;52.460;13.910;2022-12-10T01:08:50;35.78;;;18.30;;
25810;SDS011;13645;52.460;13.910;2022-12-10T01:11:18;37.40;;;18.05;;
25810;SDS011;13645;52.460;13.910;2022-12-10T01:13:46;37.22;;;18.98;;
25810;SDS011;13645;52.460;13.910;2022-12-10T01:16:15;32.83;;;16.98;;
25810;SDS011;13645;52.460;13.910;2022-12-10T01:18:44;37.50;;;18.65;;
25810;SDS011;13645;52.460;13.910;2022-12-10T01:21:12;33.67;;;17.65;;
25810;SDS011;13645;52.460;13.910;2022-12-10T01:23:42;37.38;;;18.08;;
25810;SDS011;13645;52.460;13.910;2022-12-10T01:26:12;34.58;;;17.92;;
25810;SDS011;13645;52.460;13.910;2022-12-10T01:28:40;38.03;;;18.83;;
25810;SDS011;13645;52.460;13.910;2022-12-10T01:31:11;39.00;;;18.73;;
25810;SDS011;13645;52.460;13.910;2022-12-10T01:33:43;39.05;;;19.35;;
25810;SDS011;13645;52.460;13.910;2022-12-10T01:36:11;35.97;;;18.90;;
25810;SDS011;13645;52.460;13.910;2022-12-10T01:38:43;42.57;;;19.87;;
25810;SDS011;13645;52.460;13.910;2022-12-10T01:41:17;39.88;;;19.20;;
25810;SDS011;13645;52.460;13.910;2022-12-10T01:43:48;38.78;;;19.35;;
25810;SDS011;13645;52.460;13.910;2022-12-10T01:46:20;39.78;;;19.48;;
25810;SDS011;13645;52.460;13.910;2022-12-10T01:48:49;38.28;;;18.27;;
25810;SDS011;13645;52.460;13.910;2022-12-10T01:51:16;39.08;;;19.33;;
25810;SDS011;13645;52.460;13.910;2022-12-10T01:53:43;40.00;;;20.30;;
25810;SDS011;13645;52.460;13.910;2022-12-10T01:56:11;39.75;;;18.95;;
25810;SDS011;13645;52.460;13.910;2022-12-10T01:58:39;40.65;;;19.40;;
25810;SDS011;13645;52.460;13.910;2022-12-10T02:01:10;37.40;;;18.00;;
25810;SDS011;13645;52.460;13.910;2022-12-10T02:04:04;42.30;;;19.70;;
25810;SDS011;13645;52.460;13.910;2022-12-10T02:09:35;41.63;;;19.15;;
25810;SDS011;13645;52.460;13.910;2022-12-10T02:17:39;41.60;;;19.85;;
25810;SDS011;13645;52.460;13.910;2022-12-10T02:23:16;44.38;;;19.45;;
25810;SDS011;13645;52.460;13.910;2022-12-10T02:25:57;40.67;;;19.20;;
25810;SDS011;13645;52.460;13.910;2022-12-10T02:31:14;36.33;;;18.27;;
25810;SDS011;13645;52.460;13.910;2022-12-10T02:33:45;42.16;;;19.80;;
25810;SDS011;13645;52.460;13.910;2022-12-10T02:36:16;39.58;;;19.33;;
25810;SDS011;13645;52.460;13.910;2022-12-10T02:38:44;41.88;;;19.35;;
25810;SDS011;13645;52.460;13.910;2022-12-10T02:41:14;42.08;;;19.88;;
25810;SDS011;13645;52.460;13.910;2022-12-10T02:43:46;39.78;;;19.70;;
25810;SDS011;13645;52.460;13.910;2022-12-10T02:46:17;46.38;;;20.75;;
25810;SDS011;13645;52.460;13.910;2022-12-10T02:48:45;41.78;;;19.88;;
25810;SDS011;13645;52.460;13.910;2022-12-10T02:51:14;42.03;;;19.83;;
25810;SDS011;13645;52.460;13.910;2022-12-10T02:53:41;42.95;;;19.90;;
25810;SDS011;13645;52.460;13.910;2022-12-10T02:56:24;40.67;;;19.00;;
25810;SDS011;13645;52.460;13.910;2022-12-10T03:01:59;41.30;;;19.73;;
25810;SDS011;13645;52.460;13.910;2022-12-10T03:04:46;42.97;;;21.10;;
25810;SDS011;13645;52.460;13.910;2022-12-10T03:07:28;48.88;;;20.38;;
25810;SDS011;13645;52.460;13.910;2022-12-10T03:10:03;43.42;;;20.50;;
25810;SDS011;13645;52.460;13.910;2022-12-10T03:12:38;41.05;;;19.52;;
25810;SDS011;13645;52.460;13.910;2022-12-10T03:15:13;45.20;;;19.67;;
25810;SDS011;13645;52.460;13.910;2022-12-10T03:17:42;42.78;;;19.55;;
25810;SDS011;13645;52.460;13.910;2022-12-10T03:20:11;39.53;;;18.88;;
25810;SDS011;13645;52.460;13.910;2022-12-10T03:22:41;41.75;;;18.27;;
25810;SDS011;13645;52.460;13.910;2022-12-10T03:25:10;38.03;;;18.25;;
25810;SDS011;13645;52.460;13.910;2022-12-10T03:27:39;39.78;;;18.55;;
25810;SDS011;13645;52.460;13.910;2022-12-10T03:30:07;41.65;;;18.73;;
25810;SDS011;13645;52.460;13.910;2022-12-10T03:32:35;39.75;;;19.23;;
25810;SDS011;13645;52.460;13.910;2022-12-10T03:35:02;37.72;;;18.85;;
25810;SDS011;13645;52.460;13.910;2022-12-10T03:37:32;37.63;;;18.75;;
25810;SDS011;13645;52.460;13.910;2022-12-10T03:40:00;44.40;;;20.08;;
25810;SDS011;13645;52.460;13.910;2022-12-10T03:42:28;35.60;;;18.58;;
25810;SDS011;13645;52.460;13.910;2022-12-10T03:44:55;40.50;;;19.13;;
25810;SDS011;13645;52.460;13.910;2022-12-10T03:47:22;36.38;;;18.25;;
25810;SDS011;13645;52.460;13.910;2022-12-10T03:49:49;39.88;;;19.23;;
25810;SDS011;13645;52.460;13.910;2022-12-10T03:52:16;35.53;;;17.27;;
25810;SDS011;13645;52.460;13.910;2022-12-10T03:54:43;37.40;;;18.45;;
25810;SDS011;13645;52.460;13.910;2022-12-10T03:57:10;34.97;;;18.60;;
25810;SDS011;13645;52.460;13.910;2022-12-10T03:59:36;37.63;;;19.00;;
25810;SDS011;13645;52.460;13.910;2022-12-10T04:02:03;40.25;;;19.27;;
25810;SDS011;13645;52.460;13.910;2022-12-10T04:04:30;37.95;;;18.55;;
25810;SDS011;13645;52.460;13.910;2022-12-10T04:06:57;39.70;;;18.63;;
25810;SDS011;13645;52.460;13.910;2022-12-10T04:09:24;32.72;;;17.20;;
25810;SDS011;13645;52.460;13.910;2022-12-10T04:11:54;35.92;;;17.50;;
25810;SDS011;13645;52.460;13.910;2022-12-10T04:14:22;40.47;;;19.13;;
25810;SDS011;13645;52.460;13.910;2022-12-10T04:17:07;35.63;;;18.35;;
25810;SDS011;13645;52.460;13.910;2022-12-10T04:19:34;38.30;;;18.48;;
25810;SDS011;13645;52.460;13.910;2022-12-10T04:22:01;36.80;;;19.08;;
25810;SDS011;13645;52.460;13.910;2022-12-10T04:24:47;33.92;;;17.75;;
25810;SDS011;13645;52.460;13.910;2022-12-10T04:27:52;34.70;;;17.25;;
25810;SDS011;13645;52.460;13.910;2022-12-10T04:30:19;31.67;;;17.17;;
25810;SDS011;13645;52.460;13.910;2022-12-10T04:32:46;39.92;;;17.67;;
25810;SDS011;13645;52.460;13.910;2022-12-10T04:35:12;37.40;;;18.92;;
25810;SDS011;13645;52.460;13.910;2022-12-10T04:37:39;38.25;;;18.60;;
25810;SDS011;13645;52.460;13.910;2022-12-10T04:40:06;36.67;;;18.73;;
25810;SDS011;13645;52.460;13.910;2022-12-10T04:42:34;34.58;;;18.33;;
25810;SDS011;13645;52.460;13.910;2022-12-10T04:45:01;35.63;;;19.25;;
25810;SDS011;13645;52.460;13.910;2022-12-10T04:47:27;33.72;;;18.15;;
25810;SDS011;13645;52.460;13.910;2022-12-10T04:49:54;38.72;;;19.90;;
25810;SDS011;13645;52.460;13.910;2022-12-10T04:52:21;35.47;;;19.08;;
25810;SDS011;13645;52.460;13.910;2022-12-10T04:54:48;36.72;;;17.98;;
25810;SDS011;13645;52.460;13.910;2022-12-10T04:57:14;34.83;;;18.52;;
25810;SDS011;13645;52.460;13.910;2022-12-10T04:59:41;36.17;;;18.70;;
25810;SDS011;13645;52.460;13.910;2022-12-10T05:02:08;38.80;;;18.73;;
25810;SDS011;13645;52.460;13.910;2022-12-10T05:04:35;36.92;;;18.33;;
25810;SDS011;13645;52.460;13.910;2022-12-10T05:07:02;33.88;;;18.85;;
25810;SDS011;13645;52.460;13.910;2022-12-10T05:09:29;32.03;;;18.40;;
25810;SDS011;13645;52.460;13.910;2022-12-10T05:11:55;34.05;;;17.73;;
25810;SDS011;13645;52.460;13.910;2022-12-10T05:14:22;32.40;;;16.73;;
25810;SDS011;13645;52.460;13.910;2022-12-10T05:16:50;31.88;;;17.48;;
25810;SDS011;13645;52.460;13.910;2022-12-10T05:19:17;34.30;;;19.02;;
25810;SDS011;13645;52.460;13.910;2022-12-10T05:21:49;32.70;;;16.80;;
25810;SDS011;13645;52.460;13.910;2022-12-10T05:24:35;32.00;;;16.92;;
25810;SDS011;13645;52.460;13.910;2022-12-10T05:27:02;38.40;;;18.55;;
25810;SDS011;13645;52.460;13.910;2022-12-10T05:29:29;32.22;;;17.30;;
25810;SDS011;13645;52.460;13.910;2022-12-10T05:31:56;33.85;;;17.92;;
25810;SDS011;13645;52.460;13.910;2022-12-10T05:34:22;33.03;;;17.75;;
25810;SDS011;13645;52.460;13.910;2022-12-10T05:36:49;33.65;;;17.10;;
25810;SDS011;13645;52.460;13.910;2022-12-10T05:39:16;32.47;;;17.33;;
25810;SDS011;13645;52.460;13.910;2022-12-10T05:41:43;33.30;;;17.90;;
25810;SDS011;13645;52.460;13.910;2022-12-10T05:44:11;33.22;;;16.83;;
25810;SDS011;13645;52.460;13.910;2022-12-10T05:46:38;32.78;;;17.10;;
25810;SDS011;13645;52.460;13.910;2022-12-10T05:49:05;32.78;;;17.20;;
25810;SDS011;13645;52.460;13.910;2022-12-10T05:51:33;27.98;;;15.68;;
25810;SDS011;13645;52.460;13.910;2022-12-10T05:54:03;30.38;;;17.30;;
25810;SDS011;13645;52.460;13.910;2022-12-10T05:56:31;33.65;;;18.10;;
25810;SDS011;13645;52.460;13.910;2022-12-10T05:58:59;33.17;;;17.50;;
25810;SDS011;13645;52.460;13.910;2022-12-10T06:01:29;27.83;;;15.90;;
25810;SDS011;13645;52.460;13.910;2022-12-10T06:03:58;31.73;;;17.17;;
25810;SDS011;13645;52.460;13.910;2022-12-10T06:06:29;28.95;;;17.02;;
25810;SDS011;13645;52.460;13.910;2022-12-10T06:09:01;28.45;;;16.27;;
25810;SDS011;13645;52.460;13.910;2022-12-10T06:11:29;28.63;;;16.05;;
25810;SDS011;13645;52.460;13.910;2022-12-10T06:13:56;28.17;;;16.08;;
25810;SDS011;13645;52.460;13.910;2022-12-10T06:16:25;29.40;;;16.27;;
25810;SDS011;13645;52.460;13.910;2022-12-10T06:18:54;29.20;;;16.73;;
25810;SDS011;13645;52.460;13.910;2022-12-10T06:21:21;28.88;;;15.85;;
25810;SDS011;13645;52.460;13.910;2022-12-10T06:23:49;34.45;;;15.65;;
25810;SDS011;13645;52.460;13.910;2022-12-10T06:26:19;30.23;;;15.85;;
25810;SDS011;13645;52.460;13.910;2022-12-10T06:28:47;28.45;;;15.48;;
25810;SDS011;13645;52.460;13.910;2022-12-10T06:31:15;23.98;;;14.95;;
25810;SDS011;13645;52.460;13.910;2022-12-10T06:33:42;23.80;;;14.73;;
25810;SDS011;13645;52.460;13.910;2022-12-10T06:36:10;25.10;;;15.05;;
25810;SDS011;13645;52.460;13.910;2022-12-10T06:38:38;23.80;;;13.82;;
25810;SDS011;13645;52.460;13.910;2022-12-10T06:41:06;25.77;;;13.95;;
25810;SDS011;13645;52.460;13.910;2022-12-10T06:43:34;26.77;;;14.65;;
25810;SDS011;13645;52.460;13.910;2022-12-10T06:46:05;27.05;;;15.02;;
25810;SDS011;13645;52.460;13.910;2022-12-10T06:48:37;28.45;;;15.32;;
25810;SDS011;13645;52.460;13.910;2022-12-10T06:51:04;25.98;;;15.18;;
25810;SDS011;13645;52.460;13.910;2022-12-10T06:53:32;31.33;;;16.20;;
25810;SDS011;13645;52.460;13.910;2022-12-10T06:56:00;25.67;;;15.77;;
25810;SDS011;13645;52.460;13.910;2022-12-10T06:58:29;26.27;;;15.65;;
25810;SDS011;13645;52.460;13.910;2022-12-10T07:03:31;26.92;;;15.38;;
25810;SDS011;13645;52.460;13.910;2022-12-10T07:05:59;28.35;;;15.77;;
25810;SDS011;13645;52.460;13.910;2022-12-10T07:08:27;27.95;;;15.73;;
25810;SDS011;13645;52.460;13.910;2022-12-10T07:10:54;30.13;;;16.23;;
25810;SDS011;13645;52.460;13.910;2022-12-10T07:13:21;27.13;;;14.85;;
25810;SDS011;13645;52.460;13.910;2022-12-10T07:15:55;25.63;;;14.63;;
25810;SDS011;13645;52.460;13.910;2022-12-10T07:18:22;25.70;;;14.68;;
25810;SDS011;13645;52.460;13.910;2022-12-10T07:20:49;24.92;;;14.10;;
25810;SDS011;13645;52.460;13.910;2022-12-10T07:23:15;24.85;;;13.85;;
25810;SDS011;13645;52.460;13.910;2022-12-10T07:25:42;27.55;;;15.43;;
25810;SDS011;13645;52.460;13.910;2022-12-10T07:28:09;24.55;;;15.38;;
25810;SDS011;13645;52.460;13.910;2022-12-10T07:30:35;23.08;;;13.77;;
25810;SDS011;13645;52.460;13.910;2022-12-10T07:33:03;22.25;;;13.98;;
25810;SDS011;13645;52.460;13.910;2022-12-10T07:35:29;24.40;;;14.32;;
25810;SDS011;13645;52.460;13.910;2022-12-10T07:37:56;22.83;;;13.75;;
25810;SDS011;13645;52.460;13.910;2022-12-10T07:40:23;22.58;;;13.15;;
25810;SDS011;13645;52.460;13.910;2022-12-10T07:42:50;22.13;;;13.80;;
25810;SDS011;13645;52.460;13.910;2022-12-10T07:45:16;25.13;;;14.05;;
25810;SDS011;13645;52.460;13.910;2022-12-10T07:47:43;24.30;;;14.05;;
25810;SDS011;13645;52.460;13.910;2022-12-10T07:50:10;23.35;;;14.38;;
25810;SDS011;13645;52.460;13.910;2022-12-10T07:52:37;23.90;;;14.30;;
25810;SDS011;13645;52.460;13.910;2022-12-10T07:55:04;28.25;;;15.98;;
25810;SDS011;13645;52.460;13.910;2022-12-10T07:57:31;24.48;;;14.98;;
25810;SDS011;13645;52.460;13.910;2022-12-10T07:59:58;26.80;;;15.25;;
25810;SDS011;13645;52.460;13.910;2022-12-10T08:02:25;23.80;;;14.45;;
25810;SDS011;13645;52.460;13.910;2022-12-10T08:04:51;25.85;;;15.98;;
25810;SDS011;13645;52.460;13.910;2022-12-10T08:07:18;26.42;;;15.00;;
25810;SDS011;13645;52.460;13.910;2022-12-10T08:09:45;21.00;;;12.90;;
25810;SDS011;13645;52.460;13.910;2022-12-10T08:12:11;20.05;;;12.25;;
25810;SDS011;13645;52.460;13.910;2022-12-10T08:14:38;23.77;;;14.15;;
25810;SDS011;13645;52.460;13.910;2022-12-10T08:17:05;31.02;;;16.58;;
25810;SDS011;13645;52.460;13.910;2022-12-10T08:19:32;23.48;;;13.63;;
25810;SDS011;13645;52.460;13.910;2022-12-10T08:21:58;20.58;;;13.10;;
25810;SDS011;13645;52.460;13.910;2022-12-10T08:24:25;22.92;;;13.98;;
25810;SDS011;13645;52.460;13.910;2022-12-10T08:26:52;26.17;;;17.52;;
25810;SDS011;13645;52.460;13.910;2022-12-10T08:29:18;31.02;;;20.63;;
25810;SDS011;13645;52.460;13.910;2022-12-10T08:31:45;23.88;;;13.43;;
25810;SDS011;13645;52.460;13.910;2022-12-10T08:34:16;24.17;;;13.63;;
25810;SDS011;13645;52.460;13.910;2022-12-10T08:36:44;23.95;;;13.63;;
25810;SDS011;13645;52.460;13.910;2022-12-10T08:39:12;22.92;;;13.45;;
25810;SDS011;13645;52.460;13.910;2022-12-10T08:41:46;20.58;;;12.50;;
25810;SDS011;13645;52.460;13.910;2022-12-10T08:44:13;19.98;;;11.50;;
25810;SDS011;13645;52.460;13.910;2022-12-10T08:46:40;23.25;;;12.10;;
25810;SDS011;13645;52.460;13.910;2022-12-10T08:49:07;26.17;;;15.02;;
25810;SDS011;13645;52.460;13.910;2022-12-10T08:51:34;34.17;;;21.33;;
25810;SDS011;13645;52.460;13.910;2022-12-10T08:54:02;24.00;;;14.48;;
25810;SDS011;13645;52.460;13.910;2022-12-10T08:56:29;19.80;;;12.68;;
25810;SDS011;13645;52.460;13.910;2022-12-10T08:58:56;21.38;;;13.40;;
25810;SDS011;13645;52.460;13.910;2022-12-10T09:01:22;19.30;;;12.73;;
25810;SDS011;13645;52.460;13.910;2022-12-10T09:03:49;20.73;;;12.88;;
25810;SDS011;13645;52.460;13.910;2022-12-10T09:06:18;22.50;;;13.00;;
25810;SDS011;13645;52.460;13.910;2022-12-10T09:08:47;19.52;;;13.45;;
25810;SDS011;13645;52.460;13.910;2022-12-10T09:11:15;20.52;;;13.27;;
25810;SDS011;13645;52.460;13.910;2022-12-10T09:13:47;23.77;;;13.77;;
25810;SDS011;13645;52.460;13.910;2022-12-10T09:16:14;23.67;;;14.98;;
25810;SDS011;13645;52.460;13.910;2022-12-10T09:18:41;19.20;;;13.35;;
25810;SDS011;13645;52.460;13.910;2022-12-10T09:21:09;20.30;;;13.07;;
25810;SDS011;13645;52.460;13.910;2022-12-10T09:23:38;18.42;;;12.35;;
25810;SDS011;13645;52.460;13.910;2022-12-10T09:26:06;18.90;;;12.65;;
25810;SDS011;13645;52.460;13.910;2022-12-10T09:28:37;19.58;;;11.48;;
25810;SDS011;13645;52.460;13.910;2022-12-10T09:31:05;20.88;;;13.40;;
25810;SDS011;13645;52.460;13.910;2022-12-10T09:33:41;19.45;;;12.18;;
25810;SDS011;13645;52.460;13.910;2022-12-10T09:36:09;18.67;;;11.30;;
25810;SDS011;13645;52.460;13.910;2022-12-10T09:38:38;21.70;;;12.40;;
25810;SDS011;13645;52.460;13.910;2022-12-10T09:43:45;25.10;;;16.02;;
25810;SDS011;13645;52.460;13.910;2022-12-10T09:49:08;20.45;;;12.70;;
25810;SDS011;13645;52.460;13.910;2022-12-10T09:51:46;28.10;;;16.77;;
25810;SDS011;13645;52.460;13.910;2022-12-10T09:56:42;21.08;;;13.80;;
25810;SDS011;13645;52.460;13.910;2022-12-10T09:59:18;21.33;;;13.27;;
25810;SDS011;13645;52.460;13.910;2022-12-10T10:01:47;29.60;;;18.17;;
25810;SDS011;13645;52.460;13.910;2022-12-10T10:04:24;26.77;;;17.60;;
25810;SDS011;13645;52.460;13.910;2022-12-10T10:06:51;51.88;;;28.45;;
25810;SDS011;13645;52.460;13.910;2022-12-10T10:09:18;23.17;;;15.07;;
25810;SDS011;13645;52.460;13.910;2022-12-10T10:11:45;21.98;;;14.02;;
25810;SDS011;13645;52.460;13.910;2022-12-10T10:14:13;23.45;;;13.13;;
25810;SDS011;13645;52.460;13.910;2022-12-10T10:16:49;20.55;;;13.18;;
25810;SDS011;13645;52.460;13.910;2022-12-10T10:19:28;21.42;;;13.05;;
25810;SDS011;13645;52.460;13.910;2022-12-10T10:22:00;19.27;;;12.15;;
25810;SDS011;13645;52.460;13.910;2022-12-10T10:24:38;20.90;;;12.07;;
25810;SDS011;13645;52.460;13.910;2022-12-10T10:29:43;23.92;;;14.05;;
25810;SDS011;13645;52.460;13.910;2022-12-10T10:34:41;22.38;;;13.35;;
25810;SDS011;13645;52.460;13.910;2022-12-10T10:37:18;21.85;;;13.30;;
25810;SDS011;13645;52.460;13.910;2022-12-10T10:39:51;22.77;;;15.30;;
25810;SDS011;13645;52.460;13.910;2022-12-10T10:42:32;22.23;;;14.13;;
25810;SDS011;13645;52.460;13.910;2022-12-10T10:45:06;21.70;;;15.18;;
25810;SDS011;13645;52.460;13.910;2022-12-10T10:53:24;22.25;;;12.95;;
25810;SDS011;13645;52.460;13.910;2022-12-10T10:55:56;20.58;;;12.35;;
25810;SDS011;13645;52.460;13.910;2022-12-10T10:58:34;21.77;;;13.45;;
25810;SDS011;13645;52.460;13.910;2022-12-10T11:01:06;19.17;;;13.05;;
25810;SDS011;13645;52.460;13.910;2022-12-10T11:03:34;19.40;;;12.40;;
25810;SDS011;13645;52.460;13.910;2022-12-10T11:06:05;20.20;;;12.60;;
25810;SDS011;13645;52.460;13.910;2022-12-10T11:08:34;29.35;;;18.23;;
25810;SDS011;13645;52.460;13.910;2022-12-10T11:11:06;23.55;;;13.75;;
25810;SDS011;13645;52.460;13.910;2022-12-10T11:13:51;21.77;;;14.18;;
25810;SDS011;13645;52.460;13.910;2022-12-10T11:16:20;21.48;;;13.18;;
25810;SDS011;13645;52.460;13.910;2022-12-10T11:18:53;23.77;;;13.88;;
25810;SDS011;13645;52.460;13.910;2022-12-10T11:21:21;20.17;;;13.17;;
25810;SDS011;13645;52.460;13.910;2022-12-10T11:23:51;22.30;;;13.45;;
25810;SDS011;13645;52.460;13.910;2022-12-10T11:34:15;23.40;;;13.45;;
25810;SDS011;13645;52.460;13.910;2022-12-10T11:39:26;20.25;;;12.65;;
25810;SDS011;13645;52.460;13.910;2022-12-10T11:42:11;33.78;;;20.25;;
25810;SDS011;13645;52.460;13.910;2022-12-10T11:47:44;27.08;;;16.17;;
25810;SDS011;13645;52.460;13.910;2022-12-10T12:01:10;24.38;;;15.38;;
25810;SDS011;13645;52.460;13.910;2022-12-10T12:06:50;31.65;;;17.40;;
25810;SDS011;13645;52.460;13.910;2022-12-10T12:09:57;27.02;;;16.00;;
25810;SDS011;13645;52.460;13.910;2022-12-10T12:12:36;22.38;;;13.50;;
25810;SDS011;13645;52.460;13.910;2022-12-10T12:15:23;23.30;;;13.68;;
25810;SDS011;13645;52.460;13.910;2022-12-10T12:18:22;23.17;;;14.20;;
25810;SDS011;13645;52.460;13.910;2022-12-10T12:20:56;25.17;;;14.80;;
25810;SDS011;13645;52.460;13.910;2022-12-10T12:26:36;25.88;;;14.35;;
25810;SDS011;13645;52.460;13.910;2022-12-10T12:31:43;23.30;;;13.88;;
25810;SDS011;13645;52.460;13.910;2022-12-10T12:34:44;24.05;;;14.52;;
25810;SDS011;13645;52.460;13.910;2022-12-10T12:37:32;27.70;;;15.20;;
25810;SDS011;13645;52.460;13.910;2022-12-10T12:40:09;26.27;;;14.93;;
25810;SDS011;13645;52.460;13.910;2022-12-10T12:47:48;27.15;;;15.45;;
25810;SDS011;13645;52.460;13.910;2022-12-10T12:50:40;36.28;;;20.58;;
25810;SDS011;13645;52.460;13.910;2022-12-10T12:53:14;26.52;;;14.77;;
25810;SDS011;13645;52.460;13.910;2022-12-10T13:03:59;28.40;;;15.13;;
25810;SDS011;13645;52.460;13.910;2022-12-10T13:06:31;25.70;;;15.57;;
25810;SDS011;13645;52.460;13.910;2022-12-10T13:11:44;42.95;;;24.60;;
25810;SDS011;13645;52.460;13.910;2022-12-10T13:14:30;46.65;;;28.00;;
25810;SDS011;13645;52.460;13.910;2022-12-10T13:17:01;33.38;;;19.08;;
25810;SDS011;13645;52.460;13.910;2022-12-10T13:19:50;35.60;;;20.58;;
25810;SDS011;13645;52.460;13.910;2022-12-10T13:25:09;45.63;;;27.90;;
25810;SDS011;13645;52.460;13.910;2022-12-10T13:27:37;59.67;;;37.30;;
25810;SDS011;13645;52.460;13.910;2022-12-10T13:33:12;28.20;;;16.83;;
25810;SDS011;13645;52.460;13.910;2022-12-10T13:35:48;28.08;;;15.60;;
25810;SDS011;13645;52.460;13.910;2022-12-10T13:38:38;25.08;;;14.15;;
25810;SDS011;13645;52.460;13.910;2022-12-10T13:41:06;22.20;;;14.05;;
25810;SDS011;13645;52.460;13.910;2022-12-10T13:43:58;26.80;;;15.75;;
25810;SDS011;13645;52.460;13.910;2022-12-10T13:49:22;29.48;;;15.75;;
25810;SDS011;13645;52.460;13.910;2022-12-10T13:51:55;26.33;;;15.70;;
25810;SDS011;13645;52.460;13.910;2022-12-10T14:00:06;26.42;;;15.20;;
25810;SDS011;13645;52.460;13.910;2022-12-10T14:08:36;27.52;;;16.20;;
25810;SDS011;13645;52.460;13.910;2022-12-10T14:11:10;29.80;;;15.98;;
25810;SDS011;13645;52.460;13.910;2022-12-10T14:13:44;26.08;;;14.95;;
25810;SDS011;13645;52.460;13.910;2022-12-10T14:16:15;26.33;;;15.80;;
25810;SDS011;13645;52.460;13.910;2022-12-10T14:18:52;26.60;;;15.57;;
25810;SDS011;13645;52.460;13.910;2022-12-10T14:21:22;27.17;;;14.95;;
25810;SDS011;13645;52.460;13.910;2022-12-10T14:23:50;28.58;;;14.82;;
25810;SDS011;13645;52.460;13.910;2022-12-10T14:26:25;27.13;;;15.93;;
25810;SDS011;13645;52.460;13.910;2022-12-10T14:28:54;26.85;;;15.20;;
25810;SDS011;13645;52.460;13.910;2022-12-10T14:31:30;30.52;;;16.70;;
25810;SDS011;13645;52.460;13.910;2022-12-10T14:34:08;27.00;;;15.73;;
25810;SDS011;13645;52.460;13.910;2022-12-10T14:36:47;30.48;;;17.25;;
25810;SDS011;13645;52.460;13.910;2022-12-10T14:39:17;28.65;;;16.00;;
25810;SDS011;13645;52.460;13.910;2022-12-10T14:42:05;26.20;;;15.38;;
25810;SDS011;13645;52.460;13.910;2022-12-10T14:44:34;26.15;;;15.73;;
25810;SDS011;13645;52.460;13.910;2022-12-10T14:47:19;26.90;;;15.57;;
25810;SDS011;13645;52.460;13.910;2022-12-10T14:49:47;28.58;;;16.17;;
25810;SDS011;13645;52.460;13.910;2022-12-10T14:52:17;30.67;;;16.17;;
25810;SDS011;13645;52.460;13.910;2022-12-10T14:54:48;29.95;;;16.70;;
25810;SDS011;13645;52.460;13.910;2022-12-10T14:57:19;29.90;;;16.42;;
25810;SDS011;13645;52.460;13.910;2022-12-10T14:59:51;28.85;;;16.58;;
25810;SDS011;13645;52.460;13.910;2022-12-10T15:02:37;27.98;;;16.77;;
25810;SDS011;13645;52.460;13.910;2022-12-10T15:05:15;27.42;;;15.98;;
25810;SDS011;13645;52.460;13.910;2022-12-10T15:07:52;32.30;;;17.08;;
25810;SDS011;13645;52.460;13.910;2022-12-10T15:10:35;33.03;;;16.58;;
25810;SDS011;13645;52.460;13.910;2022-12-10T15:13:08;30.67;;;17.17;;
25810;SDS011;13645;52.460;13.910;2022-12-10T15:15:48;30.92;;;16.77;;
25810;SDS011;13645;52.460;13.910;2022-12-10T15:18:18;32.17;;;17.30;;
25810;SDS011;13645;52.460;13.910;2022-12-10T15:20:48;32.72;;;17.00;;
25810;SDS011;13645;52.460;13.910;2022-12-10T15:26:04;43.00;;;18.90;;
25810;SDS011;13645;52.460;13.910;2022-12-10T15:28:40;37.22;;;18.60;;
25810;SDS011;13645;52.460;13.910;2022-12-10T15:31:12;38.78;;;19.27;;
25810;SDS011;13645;52.460;13.910;2022-12-10T15:34:01;42.00;;;19.38;;
25810;SDS011;13645;52.460;13.910;2022-12-10T15:41:48;39.83;;;19.02;;
25810;SDS011;13645;52.460;13.910;2022-12-10T15:46:51;46.25;;;19.42;;
25810;SDS011;13645;52.460;13.910;2022-12-10T15:49:30;39.83;;;19.00;;
25810;SDS011;13645;52.460;13.910;2022-12-10T15:51:57;47.78;;;19.98;;
25810;SDS011;13645;52.460;13.910;2022-12-10T15:54:32;44.13;;;20.20;;
25810;SDS011;13645;52.460;13.910;2022-12-10T15:57:17;47.80;;;19.90;;
25810;SDS011;13645;52.460;13.910;2022-12-10T15:59:46;49.60;;;22.08;;
25810;SDS011;13645;52.460;13.910;2022-12-10T16:02:24;51.15;;;21.10;;
25810;SDS011;13645;52.460;13.910;2022-12-10T16:07:36;46.65;;;19.90;;
25810;SDS011;13645;52.460;13.910;2022-12-10T16:10:03;51.08;;;20.77;;
25810;SDS011;13645;52.460;13.910;2022-12-10T16:12:31;50.10;;;19.90;;
25810;SDS011;13645;52.460;13.910;2022-12-10T16:15:06;46.72;;;19.55;;
25810;SDS011;13645;52.460;13.910;2022-12-10T16:17:37;45.67;;;20.55;;
25810;SDS011;13645;52.460;13.910;2022-12-10T16:20:15;54.85;;;21.50;;
25810;SDS011;13645;52.460;13.910;2022-12-10T16:22:54;45.13;;;20.15;;
25810;SDS011;13645;52.460;13.910;2022-12-10T16:25:22;48.83;;;21.05;;
25810;SDS011;13645;52.460;13.910;2022-12-10T16:27:50;48.10;;;20.77;;
25810;SDS011;13645;52.460;13.910;2022-12-10T16:32:44;49.58;;;20.83;;
25810;SDS011;13645;52.460;13.910;2022-12-10T16:35:11;47.40;;;20.42;;